Tikaboo Peak, Nevada Weather observations

Data are for 10 minute period ending at time listed.
 Day   Time   Solar   Ave.   Ave.  Ave.  Vector  Max.   Baro.   Total    
  of    of     Rad.   Air    Rel.  Wind   Wind   Wind  Press.  Precip.   
Year   Day            Temp.  Hum.  Speed  Dir.   Gust                    
2026   (PST)  Kw/m2    F      %     mph   deg.    mph    mb.     in.     
-------------------------------------------------------------------------
 125   11:40   0.36   48.1    41    1.4   156     4.4   757.3    0.00 
 125   11:50   0.30   47.8    42    4.0   225     6.8   757.4    0.00 
 125   12:00   100.00   47.0    42    2.5   246    12.4   757.2    0.00 
 125   12:10   100.00   50.2    38    2.3   344     7.0   757.2    0.00 
 125   12:20   100.00   53.3    34    4.5   350    14.2   757.0    0.00 
 125   12:30   100.00   53.2    33    4.3   344    10.8   757.1    0.00 
 125   12:40   100.00   53.3    33    3.2    30     7.7   757.1    0.00 
 125   12:50   0.37   52.6    34    2.3   112     6.4   757.1    0.00 
 125   13:00   0.29   50.6    36    2.6    22     7.4   757.2    0.00 
 125   13:10   0.30   50.3    36    1.0    53     4.2   757.2    0.00 
 125   13:20   0.26   50.0    36    2.4   108     7.1   757.2    0.00 
 125   13:30   0.85   49.7    35    3.2   325     7.2   757.3    0.00 
 125   13:40   0.65   51.5    32    3.3    10     9.9   757.2    0.00 
 125   13:50   1.00   53.6    29    5.2     8     9.1   757.0    0.00 
 125   14:00   1.07   55.5    27    2.4    13     7.2   757.0    0.00 
 125   14:10   1.05   56.8    26    1.9    93     5.8   757.0    0.00 
 125   14:20   0.82   55.4    26    2.9    75     9.1   756.9    0.00 
 125   14:30   0.64   54.3    27    2.8    71     8.9   756.8    0.00 
 125   14:40   0.32   53.3    28    2.7   294     6.6   756.8    0.00 
 125   14:50   0.52   52.2    30    1.3   223     5.3   756.8    0.00 
 125   15:00   0.84   52.0    30    2.6   116     8.3   756.8    0.00 
 125   15:10   0.84   53.8    28    1.8   125     5.6   756.6    0.00 
 125   15:20   0.72   55.0    26    3.1   114     8.8   756.5    0.00 
 125   15:30   0.33   54.1    26    2.3    44     8.5   756.5    0.00 
 125   15:40   0.54   52.8    29    1.3   117     7.8   756.5    0.00 
 125   15:50   0.28   53.1    28    2.5    85     7.3   756.6    0.00 
 125   16:00   0.48   52.3    27    4.3   350    10.1   756.7    0.00 
 125   16:10   0.41   54.4    26    2.1    46     8.9   756.6    0.00 
 125   16:20   0.31   51.9    28    2.4   126     6.7   756.8    0.00 
 125   16:30   0.45   52.1    28    2.9    42    12.7   756.7    0.00 
 125   16:40   0.28   53.1    27    2.9    42    10.9   756.8    0.00 
 125   16:50   0.38   53.0    27    3.7    72    12.3   756.9    0.00 
 125   17:00   0.31   52.6    27    2.3    98     8.1   756.9    0.00 
 125   17:10   0.28   52.2    27    4.1    39    10.2   757.0    0.00 
 125   17:20   0.24   52.2    27    4.7    44    11.7   757.0    0.00 
 125   17:30   0.19   51.2    28    3.1    79     9.4   757.0    0.00 
 125   17:40   0.16   50.4    29    1.9    49    11.2   757.1    0.00 
 125   17:50   0.14   50.5    29    4.1    40    11.2   757.1    0.00 
 125   18:00   0.10   50.2    29    7.4    46    13.1   757.1    0.00 
 125   18:10   0.03   50.0    30    6.1    16    10.8   757.3    0.00 
 125   18:20   0.04   49.4    30    7.4   354    13.1   757.4    0.00 
 125   18:30   0.03   49.3    31    8.9   349    14.8   757.4    0.00 
 125   18:40   0.01   48.4    33    9.7   349    19.0   757.6    0.00 
 125   18:50   0.00   47.7    36   12.3   348    19.8   757.7    0.00 
 125   19:00   0.00   47.1    40    9.8   354    17.6   757.6    0.00 
 125   19:10   0.00   46.3    44    8.2    17    15.0   757.8    0.00 
 125   19:20   0.00   45.8    45    8.4    13    13.6   757.9    0.00 
 125   19:30   0.00   45.4    46   14.4   346    21.5   758.0    0.00 
 125   19:40   0.00   45.0    47   11.8   350    20.0   758.2    0.00 
 125   19:50   0.00   44.6    47   11.5   347    17.2   758.4    0.00 
 125   20:00   0.00   44.4    47   13.4     7    22.0   758.5    0.00 
 125   20:10   0.00   44.2    47   12.4    20    22.2   758.7    0.00 
 125   20:20   0.00   44.0    47   11.6   348    18.0   758.9    0.00 
 125   20:30   0.00   43.7    47    7.1    11    12.5   758.9    0.00 
 125   20:40   0.00   43.8    47   11.1    25    20.4   758.9    0.00 
 125   20:50   0.00   43.9    46   13.3    35    18.6   758.9    0.00 
 125   21:00   0.00   43.7    46   10.1    41    16.4   759.0    0.00 
 125   21:10   0.00   43.5    47    8.8    46    13.6   759.1    0.00 
 125   21:20   0.00   43.2    47    8.0    50    13.4   759.2    0.00 
 125   21:30   0.00   43.0    48    8.6    52    12.3   759.3    0.00 
 125   21:40   0.00   42.9    48    7.5    56    12.3   759.4    0.00 
 125   21:50   0.00   43.1    48    8.9   100    14.4   759.4    0.00 
 125   22:00   0.00   44.3    47   11.7    92    15.7   759.3    0.00 
 125   22:10   0.00   44.4    48   11.8   110    17.3   759.4    0.00 
 125   22:20   0.00   44.7    48   11.7    98    18.8   759.5    0.00 
 125   22:30   0.00   44.5    49    8.9    91    16.6   759.6    0.00 
 125   22:40   0.00   44.2    49    9.2    85    15.6   759.6    0.00 
 125   22:50   0.00   44.2    50   10.6    90    16.6   759.6    0.00 
 125   23:00   0.00   44.4    51   14.8   104    21.5   759.5    0.00 
 125   23:10   0.00   44.3    52   16.1   108    22.5   759.7    0.00 
 125   23:20   0.00   44.1    53   16.9   112    22.3   759.7    0.00 
 125   23:30   0.00   44.5    52   11.0    84    18.6   759.7    0.00 
 125   23:40   0.00   44.3    52   10.5   106    14.7   759.8    0.00 
 125   23:50   0.00   43.8    54    6.8    76    12.8   759.8    0.00 
 126    0:00   0.00   43.3    54    8.2    76    15.4   759.7    0.00 
 126    0:10   0.00   42.8    55    7.6    80    14.2   759.7    0.00 
 126    0:20   0.00   42.4    56    3.2    76    11.5   759.7    0.00 
 126    0:30   0.00   42.4    57    1.7    70     8.5   759.7    0.00 
 126    0:40   0.00   42.1    57    1.6    82     4.7   759.8    0.00 
 126    0:50   0.00   41.7    56    2.0    67     7.0   759.6    0.00 
 126    1:00   0.00   41.3    56    2.3    65     7.0   759.6    0.00 
 126    1:10   0.00   41.0    59    1.7    80     5.7   759.7    0.00 
 126    1:20   0.00   40.9    60    3.2    66     8.0   759.7    0.00 
 126    1:30   0.00   40.7    60    5.0    74     9.2   759.8    0.00 
 126    1:40   0.00   40.8    60    2.9    74     9.3   759.8    0.00 
 126    1:50   0.00   40.9    60    3.4    66     8.4   760.0    0.00 
 126    2:00   0.00   40.9    60    2.9    68     9.9   760.0    0.00 
 126    2:10   0.00   41.2    62    2.3    76     8.0   760.0    0.00 
 126    2:20   0.00   41.0    64    2.6    75     7.4   760.0    0.00 
 126    2:30   0.00   40.7    66    3.3    80    10.2   760.1    0.00 
 126    2:40   0.00   40.6    67    4.5    77    11.9   760.0    0.00 
 126    2:50   0.00   40.5    68    4.6    81    13.4   760.1    0.00 
 126    3:00   0.00   40.5    69    6.0    73    12.7   760.1    0.00 
 126    3:10   0.00   40.4    70    6.5    75    12.5   760.2    0.00 
 126    3:20   0.00   40.2    71   10.9    80    14.2   760.2    0.00 
 126    3:30   0.00   40.1    71   10.1    74    14.2   760.2    0.00 
 126    3:40   0.00   40.1    72   12.6    83    15.1   760.3    0.00 
 126    3:50   0.00   40.3    71   11.3    85    15.1   760.3    0.00 
 126    4:00   0.00   40.8    67   12.6    82    16.3   760.4    0.00 
 126    4:10   0.00   41.2    67    9.8    86    14.2   760.5    0.00 
 126    4:20   0.00   41.1    67   12.9    84    16.5   760.5    0.00 
 126    4:30   0.00   41.4    66    9.2    80    15.7   760.6    0.00 
 126    4:40   0.00   41.2    68   10.1    89    13.4   760.7    0.00 
 126    4:50   0.01   41.4    66   12.1    96    14.7   760.8    0.00 
 126    5:00   0.02   42.6    62   15.7   109    22.9   760.8    0.00 
 126    5:10   0.04   43.7    59   17.4   115    24.0   761.0    0.00 
 126    5:20   0.07   44.1    59   12.9   117    19.0   761.3    0.00 
 126    5:30   0.10   44.3    59   13.1   129    18.1   761.3    0.00 
 126    5:40   0.12   44.4    60   15.0   134    18.3   761.5    0.00 
 126    5:50   0.16   44.4    60   14.6   128    18.9   761.6    0.00 
 126    6:00   0.19   44.9    59   12.5   112    18.0   761.7    0.00 
 126    6:10   0.23   45.4    58   14.8   107    18.3   761.9    0.00 
 126    6:20   0.27   45.5    58   16.7   105    19.7   762.0    0.00 
 126    6:30   0.31   46.6    55   14.7   104    19.6   762.2    0.00 
 126    6:40   0.35   46.7    55   13.3   107    17.8   762.3    0.00 
 126    6:50   0.39   47.0    54   10.6   106    16.5   762.4    0.00 
 126    7:00   0.43   47.7    52   12.5   101    19.0   762.4    0.00 
 126    7:10   0.47   48.2    50   10.2   111    17.2   762.6    0.00 
 126    7:20   0.51   47.4    51   12.0   126    20.8   762.6    0.00 
 126    7:30   0.55   47.4    51   12.0   126    18.8   762.7    0.00 
 126    7:40   0.58   47.9    50   11.8   122    20.2   762.8    0.00 
 126    7:50   0.62   48.7    49    8.0   131    16.5   762.9    0.00 
 126    8:00   0.66   48.7    49   11.6   137    21.0   762.8    0.00 
 126    8:10   0.69   48.1    50   13.4   136    27.3   763.0    0.00 
 126    8:20   0.73   48.6    48   11.9   129    22.6   763.0    0.00 
 126    8:30   0.76   49.7    47   12.2   124    24.5   763.2    0.00 
 126    8:40   0.79   48.8    48   13.1   107    25.1   763.2    0.00 
 126    8:50   0.82   49.9    45   11.3   110    22.5   763.4    0.00 
 126    9:00   0.85   49.8    46   10.4   120    23.1   763.4    0.00 
 126    9:10   0.88   51.1    46    6.6   162    19.9   763.5    0.00 
 126    9:20   0.91   52.2    42   10.1   119    22.9   763.5    0.00 
 126    9:30   0.94   51.2    42   10.3   111    22.9   763.6    0.00 
 126    9:40   0.96   50.9    40   14.6   118    26.5   763.7    0.00 
 126    9:50   0.98   51.0    40   13.7   144    27.0   763.8    0.00 
 126   10:00   1.00   52.8    37   11.3   114    21.6   763.8    0.00 
 126   10:10   1.02   53.4    35   11.0   107    22.1   763.9    0.00 
 126   10:20   1.04   53.7    32   12.6   109    26.7   763.9    0.00 
 126   10:30   1.06   53.7    27   13.7    96    24.7   764.0    0.00 
 126   10:40   1.07   56.2    22   10.0   107    27.4   764.0    0.00 
 126   10:50   1.08   54.3    24    8.6   110    20.5   764.1    0.00 
 126   11:00   1.09   54.8    26   11.6   120    28.2   764.1    0.00 
 126   11:10   1.10   55.4    24    9.1   110    24.4   764.0    0.00 
 126   11:20   1.10   55.2    23    9.5   109    25.1   764.0    0.00 
 126   11:30   1.10   55.4    24   16.4   116    30.2   764.0    0.00 

Return to Tikaboo Peak graphs page.


Western Regional Climate Center,wrcc@dri.edu